• Join FlightAware (Why Join?)
  • Login
  • US Flag 
09:35PM EDT


 

Airport Tracker/Info


-or-


 

Live Flight TrackerFlight Track Log ✈ CCA4491 ✈ 29-Jun-2013 ✈ ZUUU / CTU - ZUJZ / JZH

Flight Track Log - Related Links

Times and Time Zones

All times are in EDT time to prevent confusion due to time zone crossing. See the CCA4491 flight status page for this flight to view local times or setup timezone preferences in your user account.

Time Position Orientation Groundspeed Altitude Reporting Facility
EDT Latitude Longitude Course Direction KTS MPH feet Rate Location/Type
06:43PM 30.8311 103.9184 354° North  Level Estimated
06:44PM 30.9153 103.9089 354° North  Level Estimated
06:45PM 30.9995 103.8993 354° North  Level Estimated
06:46PM 31.0837 103.8896 354° North  Level Estimated
06:47PM 31.1679 103.8800 354° North  Level Estimated
06:48PM 31.2521 103.8704 354° North  Level Estimated
06:49PM 31.3363 103.8607 354° North  Level Estimated
06:50PM 31.4205 103.8510 354° North  Level Estimated
06:51PM 31.5047 103.8413 354° North  Level Estimated
06:52PM 31.5889 103.8316 354° North  Level Estimated
06:53PM 31.6731 103.8218 354° North  Level Estimated
06:54PM 31.7573 103.8121 354° North  Level Estimated
06:55PM 31.8415 103.8023 354° North  Level Estimated
06:56PM 31.9257 103.7925 354° North  Level Estimated
06:57PM 32.0099 103.7827 354° North  Level Estimated
06:58PM 32.0941 103.7729 354° North  Level Estimated
06:59PM 32.1783 103.7630 354° North  Level Estimated
07:00PM 32.2625 103.7532 354° North  Level Estimated
07:01PM 32.3467 103.7433 354° North  Level Estimated
07:02PM 32.4309 103.7334 354° North  Level Estimated
07:03PM 32.5151 103.7235 354° North  Level Estimated
07:04PM 32.5993 103.7135 354° North  Level Estimated
07:05PM 32.6834 103.7036 354° North  Level Estimated
07:06PM 32.7676 103.6936 354° North  Level Estimated
07:07PM 32.8518 103.6836 354° North  Level Estimated
07:08PM 32.8570 103.6830 354° North  Level Estimated
07:09PM 32.8570 103.6830 North  Level Estimated
07:10PM 32.8570 103.6830 North  Level Estimated
07:11PM 32.8570 103.6830 North  Level Estimated
07:12PM 32.8570 103.6830 North  Level Estimated
07:13PM 32.8570 103.6830 North  Level Estimated
07:14PM 32.8570 103.6830 North  Level Estimated
07:15PM 32.8570 103.6830 North  Level Estimated
07:16PM 32.8570 103.6830 North  Level Estimated